createdAt,value
2024-01-08T00:00:40.784Z,620.00
2024-01-08T00:01:40.766Z,622.00
2024-01-08T00:02:40.727Z,622.00
2024-01-08T00:03:40.760Z,619.00
2024-01-08T00:04:40.705Z,619.00
2024-01-08T00:05:40.871Z,618.00
2024-01-08T00:06:40.753Z,618.00
2024-01-08T00:07:40.709Z,618.00
2024-01-08T00:08:40.714Z,616.00
2024-01-08T00:09:40.706Z,616.00
2024-01-08T00:10:40.716Z,616.00
2024-01-08T00:11:40.728Z,616.00
2024-01-08T00:12:40.721Z,620.00
2024-01-08T00:13:40.722Z,619.00
2024-01-08T00:14:40.718Z,619.00
2024-01-08T00:15:40.733Z,618.00
2024-01-08T00:16:40.718Z,619.00
2024-01-08T00:17:40.804Z,617.00
2024-01-08T00:18:40.804Z,615.00
2024-01-08T00:19:40.747Z,617.00
2024-01-08T00:20:40.743Z,618.00
2024-01-08T00:21:40.725Z,617.00
2024-01-08T00:22:40.759Z,620.00
2024-01-08T00:23:40.741Z,621.00
2024-01-08T00:24:40.756Z,621.00
2024-01-08T00:25:40.734Z,621.00
2024-01-08T00:27:40.743Z,623.00
2024-01-08T00:28:40.736Z,622.00
2024-01-08T00:29:40.739Z,621.00
2024-01-08T00:30:40.766Z,622.00
2024-01-08T00:31:40.829Z,624.00
2024-01-08T00:32:40.908Z,622.00
2024-01-08T00:33:40.814Z,622.00
2024-01-08T00:34:40.757Z,623.00
2024-01-08T00:35:40.807Z,623.00
2024-01-08T00:36:40.749Z,623.00
2024-01-08T00:37:40.760Z,622.00
2024-01-08T00:38:40.756Z,623.00
2024-01-08T00:39:40.755Z,624.00
2024-01-08T00:40:40.759Z,627.00
2024-01-08T00:41:40.755Z,625.00
2024-01-08T00:42:41.124Z,626.00
2024-01-08T00:43:40.759Z,622.00
2024-01-08T00:44:40.811Z,619.00
2024-01-08T00:45:40.776Z,621.00
2024-01-08T00:46:40.769Z,618.00
2024-01-08T00:47:40.852Z,619.00
2024-01-08T00:48:40.782Z,619.00
2024-01-08T00:49:40.777Z,617.00
2024-01-08T00:50:40.793Z,622.00
2024-01-08T00:51:40.782Z,623.00
2024-01-08T00:52:40.789Z,624.00
2024-01-08T00:53:40.787Z,624.00
2024-01-08T00:54:40.781Z,622.00
2024-01-08T00:55:40.793Z,621.00
2024-01-08T00:56:40.802Z,621.00
2024-01-08T00:57:40.793Z,622.00
2024-01-08T00:58:40.796Z,619.00
2024-01-08T00:59:40.798Z,617.00
2024-01-08T01:00:40.811Z,612.00
2024-01-08T01:01:40.793Z,611.00
2024-01-08T01:02:40.854Z,611.00
2024-01-08T01:03:40.981Z,614.00
2024-01-08T01:04:40.971Z,616.00
2024-01-08T01:05:40.871Z,615.00
2024-01-08T01:06:40.811Z,615.00
2024-01-08T01:07:40.826Z,614.00
2024-01-08T01:08:40.808Z,612.00
2024-01-08T01:09:40.816Z,611.00
2024-01-08T01:10:40.837Z,613.00
2024-01-08T01:11:40.818Z,611.00
2024-01-08T01:12:40.843Z,610.00
2024-01-08T01:13:40.840Z,611.00
2024-01-08T01:14:40.819Z,611.00
2024-01-08T01:15:40.827Z,612.00
2024-01-08T01:16:40.830Z,614.00
2024-01-08T01:17:40.929Z,616.00
2024-01-08T01:18:40.915Z,613.00
2024-01-08T01:19:40.834Z,612.00
2024-01-08T01:20:40.834Z,610.00
2024-01-08T01:21:40.840Z,611.00
2024-01-08T01:22:40.851Z,614.00
2024-01-08T01:23:40.878Z,616.00
2024-01-08T01:24:40.853Z,615.00
2024-01-08T01:25:40.862Z,615.00
2024-01-08T01:26:40.875Z,615.00
2024-01-08T01:27:40.889Z,618.00
2024-01-08T01:28:40.887Z,618.00
2024-01-08T01:29:40.922Z,619.00
2024-01-08T01:30:40.954Z,620.00
2024-01-08T01:31:40.912Z,622.00
2024-01-08T01:32:41.005Z,620.00
2024-01-08T01:33:40.981Z,619.00
2024-01-08T01:34:40.920Z,619.00
2024-01-08T01:35:40.970Z,617.00
2024-01-08T01:36:41.043Z,618.00
2024-01-08T01:37:40.969Z,618.00
2024-01-08T01:38:41.029Z,618.00
2024-01-08T01:39:40.935Z,620.00
2024-01-08T01:40:40.934Z,618.00
2024-01-08T01:41:41.027Z,618.00
2024-01-08T01:42:40.980Z,619.00
2024-01-08T01:43:40.978Z,617.00
2024-01-08T01:44:41.033Z,613.00
2024-01-08T01:45:40.989Z,612.00
2024-01-08T01:46:41.012Z,614.00
2024-01-08T01:47:41.152Z,616.00
2024-01-08T01:48:41.121Z,613.00
2024-01-08T01:49:41.052Z,609.00
2024-01-08T01:50:41.074Z,608.00
2024-01-08T01:51:41.064Z,608.00
2024-01-08T01:52:41.053Z,608.00
2024-01-08T01:53:41.057Z,608.00
2024-01-08T01:54:41.092Z,607.00
2024-01-08T01:55:41.089Z,607.00
2024-01-08T01:56:41.091Z,610.00
2024-01-08T01:57:41.114Z,612.00
2024-01-08T01:58:41.111Z,612.00
2024-01-08T01:59:41.200Z,613.00
2024-01-08T02:00:41.155Z,612.00
2024-01-08T02:01:41.138Z,608.00
2024-01-08T02:02:41.247Z,610.00
2024-01-08T02:03:41.191Z,610.00
2024-01-08T02:04:41.245Z,611.00
2024-01-08T02:05:41.209Z,610.00
2024-01-08T02:06:41.174Z,610.00
2024-01-08T02:07:41.181Z,611.00
2024-01-08T02:08:41.205Z,614.00
2024-01-08T02:09:41.206Z,615.00
2024-01-08T02:10:41.322Z,619.00
2024-01-08T02:11:41.309Z,619.00
2024-01-08T02:12:41.282Z,620.00
2024-01-08T02:13:41.292Z,617.00
2024-01-08T02:14:41.391Z,617.00
2024-01-08T02:15:41.316Z,617.00
2024-01-08T02:16:41.310Z,619.00
2024-01-08T02:17:41.357Z,620.00
2024-01-08T02:18:41.396Z,619.00
2024-01-08T02:19:41.337Z,620.00
2024-01-08T02:20:41.331Z,619.00
2024-01-08T02:21:41.335Z,618.00
2024-01-08T02:22:41.344Z,617.00
2024-01-08T02:23:41.357Z,612.00
2024-01-08T02:24:41.348Z,612.00
2024-01-08T02:25:41.371Z,613.00
2024-01-08T02:26:41.416Z,612.00
2024-01-08T02:27:41.374Z,612.00
2024-01-08T02:28:41.382Z,612.00
2024-01-08T02:29:41.438Z,610.00
2024-01-08T02:30:41.457Z,614.00
2024-01-08T02:31:41.454Z,613.00
2024-01-08T02:32:41.517Z,613.00
2024-01-08T02:33:41.433Z,610.00
2024-01-08T02:34:41.459Z,610.00
2024-01-08T02:35:41.446Z,610.00
2024-01-08T02:36:41.453Z,609.00
2024-01-08T02:37:41.469Z,607.00
2024-01-08T02:38:41.466Z,607.00
2024-01-08T02:39:41.469Z,610.00
2024-01-08T02:40:41.474Z,609.00
2024-01-08T02:41:41.484Z,611.00
2024-01-08T02:42:41.496Z,609.00
2024-01-08T02:43:41.498Z,608.00
2024-01-08T02:44:41.494Z,609.00
2024-01-08T02:45:41.499Z,610.00
2024-01-08T02:46:41.517Z,608.00
2024-01-08T02:47:41.858Z,606.00
2024-01-08T02:48:41.616Z,608.00
2024-01-08T02:49:41.509Z,607.00
2024-01-08T02:50:41.526Z,608.00
2024-01-08T02:51:41.522Z,610.00
2024-01-08T02:52:41.534Z,610.00
2024-01-08T02:53:41.549Z,609.00
2024-01-08T02:54:41.534Z,613.00
2024-01-08T02:55:41.532Z,612.00
2024-01-08T02:56:41.565Z,612.00
2024-01-08T02:57:41.569Z,614.00
2024-01-08T02:58:41.578Z,612.00
2024-01-08T02:59:41.560Z,611.00
2024-01-08T03:00:41.596Z,608.00
2024-01-08T03:01:41.578Z,608.00
2024-01-08T03:02:41.621Z,609.00
2024-01-08T03:03:41.635Z,610.00
2024-01-08T03:04:41.607Z,609.00
2024-01-08T03:05:41.653Z,609.00
2024-01-08T03:06:41.658Z,611.00
2024-01-08T03:07:41.628Z,613.00
2024-01-08T03:08:41.680Z,614.00
2024-01-08T03:09:41.646Z,614.00
2024-01-08T03:10:41.645Z,615.00
2024-01-08T03:11:41.664Z,615.00
2024-01-08T03:12:41.664Z,617.00
2024-01-08T03:13:41.680Z,614.00
2024-01-08T03:14:41.698Z,613.00
2024-01-08T03:15:41.709Z,616.00
2024-01-08T03:16:41.743Z,615.00
2024-01-08T03:17:41.920Z,614.00
2024-01-08T03:18:41.817Z,612.00
2024-01-08T03:19:41.721Z,611.00
2024-01-08T03:20:41.812Z,613.00
2024-01-08T03:21:41.769Z,613.00
2024-01-08T03:22:41.783Z,616.00
2024-01-08T03:23:41.896Z,617.00
2024-01-08T03:24:41.843Z,617.00
2024-01-08T03:25:41.818Z,617.00
2024-01-08T03:26:41.853Z,617.00
2024-01-08T03:27:41.815Z,618.00
2024-01-08T03:28:41.823Z,614.00
2024-01-08T03:29:41.842Z,611.00
2024-01-08T03:30:41.951Z,611.00
2024-01-08T03:31:41.846Z,611.00
2024-01-08T03:32:42.048Z,609.00
2024-01-08T03:33:41.902Z,611.00
2024-01-08T03:34:41.854Z,612.00
2024-01-08T03:35:41.897Z,614.00
2024-01-08T03:36:41.876Z,615.00
2024-01-08T03:37:41.884Z,613.00
2024-01-08T03:38:41.890Z,611.00
2024-01-08T03:39:41.892Z,609.00
2024-01-08T03:40:41.892Z,607.00
2024-01-08T03:41:41.897Z,608.00
2024-01-08T03:42:41.909Z,609.00
2024-01-08T03:43:41.912Z,608.00
2024-01-08T03:44:41.903Z,608.00
2024-01-08T03:45:41.914Z,611.00
2024-01-08T03:46:41.932Z,614.00
2024-01-08T03:47:42.080Z,615.00
2024-01-08T03:48:42.027Z,614.00
2024-01-08T03:49:41.922Z,612.00
2024-01-08T03:50:42.002Z,612.00
2024-01-08T03:51:41.943Z,614.00
2024-01-08T03:52:41.944Z,613.00
2024-01-08T03:53:41.981Z,614.00
2024-01-08T03:54:41.948Z,612.00
2024-01-08T03:55:41.970Z,611.00
2024-01-08T03:56:42.035Z,612.00
2024-01-08T03:57:41.968Z,613.00
2024-01-08T03:58:41.992Z,611.00
2024-01-08T03:59:42.019Z,612.00
2024-01-08T04:00:42.053Z,614.00
2024-01-08T04:01:42.002Z,619.00
2024-01-08T04:02:42.257Z,619.00
2024-01-08T04:03:42.060Z,619.00
2024-01-08T04:04:42.009Z,618.00
2024-01-08T04:05:42.112Z,620.00
2024-01-08T04:06:42.072Z,620.00
2024-01-08T04:07:42.034Z,621.00
2024-01-08T04:08:42.189Z,621.00
2024-01-08T04:09:42.052Z,619.00
2024-01-08T04:10:42.079Z,618.00
2024-01-08T04:11:42.082Z,619.00
2024-01-08T04:12:42.114Z,617.00
2024-01-08T04:13:42.122Z,615.00
2024-01-08T04:14:42.169Z,612.00
2024-01-08T04:15:42.143Z,610.00
2024-01-08T04:16:42.187Z,611.00
2024-01-08T04:17:42.274Z,613.00
2024-01-08T04:18:42.219Z,612.00
2024-01-08T04:19:42.157Z,611.00
2024-01-08T04:20:42.225Z,613.00
2024-01-08T04:21:42.168Z,613.00
2024-01-08T04:22:42.181Z,611.00
2024-01-08T04:23:42.192Z,613.00
2024-01-08T04:24:42.198Z,614.00
2024-01-08T04:25:42.199Z,616.00
2024-01-08T04:26:42.198Z,616.00
2024-01-08T04:27:49.402Z,614.00
2024-01-08T04:28:49.498Z,611.00
2024-01-08T04:29:49.406Z,611.00
2024-01-08T04:30:49.556Z,611.00
2024-01-08T04:31:56.774Z,614.00
2024-01-08T04:32:56.866Z,614.00
2024-01-08T04:33:56.851Z,615.00
2024-01-08T04:34:56.820Z,613.00
2024-01-08T04:35:56.776Z,614.00
2024-01-08T04:36:56.775Z,612.00
2024-01-08T04:37:56.786Z,614.00
2024-01-08T04:38:56.778Z,613.00
2024-01-08T04:39:56.813Z,611.00
2024-01-08T04:40:56.803Z,615.00
2024-01-08T04:41:56.790Z,616.00
2024-01-08T04:42:56.784Z,619.00
2024-01-08T04:43:56.828Z,619.00
2024-01-08T04:44:56.785Z,616.00
2024-01-08T04:45:56.798Z,614.00
2024-01-08T04:46:56.834Z,613.00
2024-01-08T04:47:56.873Z,612.00
2024-01-08T04:48:56.832Z,612.00
2024-01-08T04:49:56.853Z,612.00
2024-01-08T04:50:56.788Z,612.00
2024-01-08T04:51:56.791Z,610.00
2024-01-08T04:52:56.812Z,609.00
2024-01-08T04:53:56.810Z,610.00
2024-01-08T04:54:56.811Z,612.00
2024-01-08T04:55:56.824Z,614.00
2024-01-08T04:56:56.817Z,614.00
2024-01-08T04:57:56.806Z,613.00
2024-01-08T04:58:56.950Z,612.00
2024-01-08T04:59:56.803Z,612.00
2024-01-08T05:00:56.813Z,610.00
2024-01-08T05:01:56.877Z,609.00
2024-01-08T05:02:56.827Z,610.00
2024-01-08T05:03:56.816Z,611.00
2024-01-08T05:04:56.876Z,611.00
2024-01-08T05:05:56.868Z,607.00
2024-01-08T05:06:56.809Z,609.00
2024-01-08T05:07:56.835Z,610.00
2024-01-08T05:08:56.804Z,610.00
2024-01-08T05:09:56.808Z,608.00
2024-01-08T05:10:56.870Z,610.00
2024-01-08T05:11:56.811Z,611.00
2024-01-08T05:12:56.826Z,609.00
2024-01-08T05:13:56.836Z,610.00
2024-01-08T05:14:56.817Z,611.00
2024-01-08T05:15:56.818Z,609.00
2024-01-08T05:16:56.881Z,607.00
2024-01-08T05:17:57.000Z,606.00
2024-01-08T05:18:56.937Z,607.00
2024-01-08T05:19:56.873Z,606.00
2024-01-08T05:20:56.834Z,603.00
2024-01-08T05:21:56.835Z,604.00
2024-01-08T05:22:56.873Z,604.00
2024-01-08T05:23:56.832Z,605.00
2024-01-08T05:24:56.845Z,605.00
2024-01-08T05:25:56.880Z,606.00
2024-01-08T05:26:56.842Z,606.00
2024-01-08T05:27:56.867Z,607.00
2024-01-08T05:28:56.892Z,606.00
2024-01-08T05:29:56.845Z,608.00
2024-01-08T05:30:57.068Z,611.00
2024-01-08T05:31:56.874Z,612.00
2024-01-08T05:32:56.944Z,613.00
2024-01-08T05:33:56.887Z,615.00
2024-01-08T05:34:56.883Z,614.00
2024-01-08T05:35:56.864Z,615.00
2024-01-08T05:36:56.883Z,614.00
2024-01-08T05:37:56.888Z,614.00
2024-01-08T05:38:56.871Z,612.00
2024-01-08T05:39:56.875Z,613.00
2024-01-08T05:40:57.177Z,614.00
2024-01-08T05:41:56.893Z,615.00
2024-01-08T05:42:56.874Z,616.00
2024-01-08T05:43:56.928Z,615.00
2024-01-08T05:44:56.889Z,616.00
2024-01-08T05:45:56.888Z,616.00
2024-01-08T05:46:56.919Z,615.00
2024-01-08T05:47:57.014Z,615.00
2024-01-08T05:48:56.997Z,615.00
2024-01-08T05:49:56.915Z,615.00
2024-01-08T05:50:56.906Z,617.00
2024-01-08T05:51:56.902Z,617.00
2024-01-08T05:52:56.985Z,614.00
2024-01-08T05:53:56.902Z,614.00
2024-01-08T05:54:56.909Z,612.00
2024-01-08T05:55:56.937Z,611.00
2024-01-08T05:56:56.913Z,612.00
2024-01-08T05:57:56.906Z,611.00
2024-01-08T05:58:56.931Z,610.00
2024-01-08T05:59:56.910Z,608.00
2024-01-08T06:00:56.907Z,608.00
2024-01-08T06:01:56.932Z,610.00
2024-01-08T06:02:56.930Z,609.00
2024-01-08T06:03:56.953Z,609.00
2024-01-08T06:04:56.955Z,608.00
2024-01-08T06:05:57.093Z,608.00
2024-01-08T06:06:56.940Z,607.00
2024-01-08T06:07:56.961Z,607.00
2024-01-08T06:08:56.926Z,611.00
2024-01-08T06:09:56.932Z,611.00
2024-01-08T06:10:56.963Z,612.00
2024-01-08T06:11:56.934Z,615.00
2024-01-08T06:12:56.971Z,617.00
2024-01-08T06:13:57.974Z,618.00
2024-01-08T06:14:57.003Z,613.00
2024-01-08T06:15:56.937Z,611.00
2024-01-08T06:16:57.000Z,609.00
2024-01-08T06:17:56.977Z,610.00
2024-01-08T06:18:56.987Z,609.00
2024-01-08T06:19:56.982Z,612.00
2024-01-08T06:20:56.952Z,611.00
2024-01-08T06:21:56.946Z,611.00
2024-01-08T06:22:57.030Z,611.00
2024-01-08T06:23:56.965Z,616.00
2024-01-08T06:24:56.963Z,669.00
2024-01-08T06:25:57.039Z,631.00
2024-01-08T06:26:56.959Z,621.00
2024-01-08T06:27:56.965Z,619.00
2024-01-08T06:28:57.023Z,622.00
2024-01-08T06:29:56.975Z,627.00
2024-01-08T06:30:57.080Z,633.00
2024-01-08T06:31:57.074Z,638.00
2024-01-08T06:32:57.162Z,642.00
2024-01-08T06:33:57.115Z,649.00
2024-01-08T06:34:57.019Z,753.00
2024-01-08T06:35:57.081Z,756.00
2024-01-08T06:36:57.010Z,756.00
2024-01-08T06:37:57.056Z,816.00
2024-01-08T06:38:56.991Z,830.00
2024-01-08T06:39:56.985Z,880.00
2024-01-08T06:40:57.166Z,901.00
2024-01-08T06:41:57.976Z,905.00
2024-01-08T06:43:01.301Z,976.00
2024-01-08T06:43:58.037Z,1019.00
2024-01-08T06:44:56.997Z,1102.00
2024-01-08T06:45:57.018Z,1154.00
2024-01-08T06:46:57.078Z,1176.00
2024-01-08T06:47:57.091Z,1189.00
2024-01-08T06:48:57.090Z,1180.00
2024-01-08T06:49:57.038Z,1186.00
2024-01-08T06:50:56.996Z,1192.00
2024-01-08T06:51:57.028Z,1193.00
2024-01-08T06:52:57.501Z,1195.00
2024-01-08T06:53:57.043Z,1194.00
2024-01-08T06:54:57.010Z,1191.00
2024-01-08T06:55:57.022Z,1187.00
2024-01-08T06:56:57.090Z,1187.00
2024-01-08T06:57:57.038Z,1190.00
2024-01-08T06:58:57.052Z,1188.00
2024-01-08T06:59:57.086Z,1186.00
2024-01-08T07:00:57.087Z,1184.00
2024-01-08T07:01:57.473Z,1183.00
2024-01-08T07:02:57.289Z,1184.00
2024-01-08T07:03:57.189Z,1186.00
2024-01-08T07:04:57.412Z,1184.00
2024-01-08T07:05:57.452Z,1182.00
2024-01-08T07:06:57.367Z,1181.00
2024-01-08T07:07:57.576Z,1176.00
2024-01-08T07:08:57.509Z,1175.00
2024-01-08T07:09:57.539Z,1175.00
2024-01-08T07:10:57.664Z,1175.00
2024-01-08T07:11:57.713Z,1177.00
2024-01-08T07:12:57.750Z,1174.00
2024-01-08T07:13:58.277Z,1172.00
2024-01-08T07:14:57.899Z,1170.00
2024-01-08T07:15:57.963Z,1172.00
2024-01-08T07:16:58.074Z,1174.00
2024-01-08T07:17:59.962Z,1175.00
2024-01-08T07:18:58.188Z,1175.00
2024-01-08T07:19:58.263Z,1173.00
2024-01-08T07:20:58.279Z,1171.00
2024-01-08T07:21:58.377Z,1171.00
2024-01-08T07:22:58.485Z,1170.00
2024-01-08T07:23:58.551Z,1167.00
2024-01-08T07:24:58.575Z,1165.00
2024-01-08T07:25:58.679Z,1166.00
2024-01-08T07:26:58.693Z,1165.00
2024-01-08T07:27:58.779Z,1165.00
2024-01-08T07:28:58.855Z,1162.00
2024-01-08T07:29:58.917Z,1163.00
2024-01-08T07:30:59.089Z,1163.00
2024-01-08T07:31:59.109Z,1163.00
2024-01-08T07:32:59.207Z,1161.00
2024-01-08T07:33:59.333Z,1159.00
2024-01-08T07:34:59.332Z,1156.00
2024-01-08T07:35:59.328Z,1152.00
2024-01-08T07:36:59.401Z,1147.00
2024-01-08T07:38:00.058Z,1144.00
2024-01-08T07:39:00.011Z,1152.00
2024-01-08T07:39:59.615Z,1211.00
2024-01-08T07:40:59.669Z,1285.00
2024-01-08T07:41:59.712Z,1316.00
2024-01-08T07:42:59.961Z,1381.00
2024-01-08T07:43:59.898Z,1390.00
2024-01-08T07:45:00.062Z,1436.00
2024-01-08T07:45:59.902Z,1499.00
2024-01-08T07:47:00.532Z,1509.00
2024-01-08T07:48:00.371Z,1525.00
2024-01-08T07:49:00.043Z,1545.00
2024-01-08T07:49:59.996Z,1603.00
2024-01-08T07:51:00.060Z,1619.00
2024-01-08T07:52:00.011Z,1637.00
2024-01-08T07:53:00.055Z,1663.00
2024-01-08T07:54:00.088Z,1694.00
2024-01-08T07:55:00.047Z,1723.00
2024-01-08T07:56:00.121Z,1765.00
2024-01-08T07:57:02.835Z,1825.00
2024-01-08T07:58:00.077Z,1836.00
2024-01-08T07:59:00.110Z,1856.00
2024-01-08T08:00:00.095Z,1880.00
2024-01-08T08:01:00.122Z,1919.00
2024-01-08T08:02:00.315Z,1931.00
2024-01-08T08:03:00.175Z,1966.00
2024-01-08T08:04:03.300Z,1996.00
2024-01-08T08:05:00.149Z,2019.00
2024-01-08T08:06:00.291Z,2051.00
2024-01-08T08:07:00.156Z,2077.00
2024-01-08T08:08:00.202Z,2112.00
2024-01-08T08:09:00.132Z,2128.00
2024-01-08T10:24:02.733Z,3397.00
2024-01-08T10:24:25.125Z,3430.00
2024-01-08T10:25:25.067Z,3444.00
2024-01-08T10:26:25.151Z,3473.00
2024-01-08T10:27:25.055Z,3500.00
2024-01-08T10:28:25.068Z,3531.00
2024-01-08T10:29:25.099Z,3559.00
2024-01-08T10:30:25.092Z,3591.00
2024-01-08T10:31:25.073Z,3669.00
2024-01-08T10:32:25.217Z,3674.00
2024-01-08T10:33:25.632Z,3696.00
2024-01-08T10:34:25.114Z,3711.00
2024-01-08T10:35:25.090Z,3747.00
2024-01-08T10:36:25.064Z,3782.00
2024-01-08T10:37:25.061Z,3824.00
2024-01-08T10:38:25.540Z,3885.00
2024-01-08T10:39:30.906Z,3922.00
2024-01-08T10:40:26.125Z,3959.00
2024-01-08T10:41:25.148Z,3980.00
2024-01-08T10:42:25.121Z,3995.00
2024-01-08T10:43:25.479Z,4005.00
2024-01-08T10:44:25.225Z,4028.00
2024-01-08T10:45:25.119Z,4052.00
2024-01-08T10:46:25.120Z,4076.00
2024-01-08T10:47:28.710Z,4095.00
2024-01-08T10:48:25.602Z,4125.00
2024-01-08T10:49:25.185Z,4168.00
2024-01-08T10:50:25.183Z,4220.00
2024-01-08T10:51:25.127Z,4249.00
2024-01-08T10:52:25.155Z,4269.00
2024-01-08T10:53:25.520Z,4302.00
2024-01-08T10:54:25.145Z,4387.00
2024-01-08T10:55:25.152Z,4413.00
2024-01-08T10:56:25.156Z,4458.00
2024-01-08T10:57:25.145Z,4452.00
2024-01-08T10:58:25.153Z,4463.00
2024-01-08T10:59:25.210Z,4490.00
2024-01-08T11:00:25.154Z,4499.00
2024-01-08T11:01:25.144Z,4567.00
2024-01-08T11:02:25.197Z,4583.00
2024-01-08T11:03:25.215Z,4617.00
2024-01-08T11:04:25.194Z,4637.00
2024-01-08T11:05:25.326Z,4692.00
2024-01-08T11:06:25.207Z,4698.00
2024-01-08T11:07:25.153Z,4729.00
2024-01-08T11:08:25.243Z,4756.00
2024-01-08T11:09:25.237Z,4769.00
2024-01-08T11:10:25.199Z,4824.00
2024-01-08T11:11:25.259Z,4861.00
2024-01-08T11:12:25.312Z,4883.00
2024-01-08T11:13:25.400Z,4931.00
2024-01-08T11:14:25.500Z,4966.00
2024-01-08T11:15:25.504Z,4974.00
2024-01-08T11:16:25.604Z,5002.00
2024-01-08T11:17:25.768Z,5031.00
2024-01-08T11:18:29.390Z,5066.00
2024-01-08T11:19:26.758Z,5079.00
2024-01-08T11:20:25.737Z,5157.00
2024-01-08T11:21:25.728Z,5168.00
2024-01-08T11:22:25.771Z,5180.00
2024-01-08T11:23:25.811Z,5194.00
2024-01-08T11:24:25.718Z,5272.00
2024-01-08T11:25:25.729Z,5311.00
2024-01-08T11:26:25.745Z,5365.00
2024-01-08T11:27:25.735Z,5382.00
2024-01-08T11:28:25.729Z,5424.00
2024-01-08T11:29:26.039Z,5458.00
2024-01-08T11:30:25.916Z,5422.00
2024-01-08T11:31:25.911Z,5433.00
2024-01-08T11:32:26.010Z,5422.00
2024-01-08T11:33:26.556Z,5373.00
2024-01-08T11:34:26.173Z,5354.00
2024-01-08T11:35:26.128Z,5330.00
2024-01-08T11:36:26.162Z,5311.00
2024-01-08T11:37:26.223Z,5293.00
2024-01-08T11:38:26.383Z,5275.00
2024-01-08T11:39:26.365Z,5259.00
2024-01-08T11:40:26.415Z,5240.00
2024-01-08T11:41:26.428Z,5220.00
2024-01-08T11:42:26.426Z,5196.00
2024-01-08T11:43:26.518Z,5187.00
2024-01-08T11:44:26.541Z,5180.00
2024-01-08T11:45:26.480Z,5172.00
2024-01-08T11:46:26.461Z,5161.00
2024-01-08T11:47:26.499Z,5155.00
2024-01-08T11:48:26.643Z,5147.00
2024-01-08T11:49:26.524Z,5138.00
2024-01-08T11:50:26.572Z,5130.00
2024-01-08T11:51:26.561Z,5126.00
2024-01-08T11:52:26.596Z,5110.00
2024-01-08T11:53:26.650Z,5089.00
2024-01-08T11:54:26.649Z,5063.00
2024-01-08T11:55:26.688Z,5045.00
2024-01-08T11:56:26.825Z,5038.00
2024-01-08T11:57:26.838Z,5042.00
2024-01-08T11:58:26.802Z,5042.00
2024-01-08T11:59:26.929Z,5040.00
2024-01-08T12:00:26.866Z,5029.00
2024-01-08T12:01:26.906Z,5028.00
2024-01-08T12:02:27.027Z,5027.00
2024-01-08T12:03:27.053Z,5014.00
2024-01-08T12:04:27.028Z,5006.00
2024-01-08T12:05:27.146Z,5009.00
2024-01-08T12:06:27.222Z,4993.00
2024-01-08T12:07:27.169Z,4991.00
2024-01-08T12:08:27.238Z,4981.00
2024-01-08T12:09:27.336Z,4968.00
2024-01-08T12:10:27.292Z,4950.00
2024-01-08T12:11:27.398Z,4948.00
2024-01-08T12:12:27.395Z,4946.00
2024-01-08T12:13:27.436Z,4908.00
2024-01-08T12:14:27.480Z,4905.00
2024-01-08T12:15:27.542Z,4899.00
2024-01-08T12:16:27.577Z,4890.00
2024-01-08T12:17:27.725Z,4884.00
2024-01-08T12:18:27.821Z,4879.00
2024-01-08T12:19:27.794Z,4874.00
2024-01-08T12:20:27.803Z,4871.00
2024-01-08T12:21:36.748Z,4697.00
2024-01-08T12:22:28.849Z,4710.00
2024-01-08T12:23:27.909Z,4712.00
2024-01-08T12:24:27.862Z,4694.00
2024-01-08T12:25:27.897Z,4654.00
2024-01-08T12:26:27.907Z,4659.00
2024-01-08T12:27:27.876Z,4655.00
2024-01-08T12:28:27.839Z,4671.00
2024-01-08T12:29:27.867Z,4676.00
2024-01-08T12:30:27.924Z,4662.00
2024-01-08T12:31:27.842Z,4675.00
2024-01-08T12:32:27.965Z,4736.00
2024-01-08T12:33:28.060Z,4694.00
2024-01-08T12:34:28.054Z,4686.00
2024-01-08T12:35:28.154Z,4693.00
2024-01-08T12:36:28.113Z,4697.00
2024-01-08T12:37:28.172Z,4694.00
2024-01-08T12:38:28.239Z,4706.00
2024-01-08T12:39:28.292Z,4716.00
2024-01-08T12:40:28.342Z,4690.00
2024-01-08T12:41:28.424Z,4678.00
2024-01-08T12:42:28.462Z,4696.00
2024-01-08T12:43:28.531Z,4692.00
2024-01-08T12:44:29.067Z,4685.00
2024-01-08T12:45:28.647Z,4680.00
2024-01-08T12:46:28.736Z,4688.00
2024-01-08T12:47:28.906Z,4680.00
2024-01-08T12:48:29.003Z,4668.00
2024-01-08T12:49:28.990Z,4669.00
2024-01-08T12:50:29.007Z,4680.00
2024-01-08T12:51:29.033Z,4664.00
2024-01-08T12:52:29.088Z,4648.00
2024-01-08T12:53:29.160Z,4652.00
2024-01-08T12:54:29.244Z,4653.00
2024-01-08T12:55:29.286Z,4645.00
2024-01-08T12:56:29.361Z,4648.00
2024-01-08T12:57:29.444Z,4645.00
2024-01-08T12:58:29.474Z,4640.00
2024-01-08T12:59:29.615Z,4636.00
2024-01-08T13:00:29.613Z,4632.00
2024-01-08T13:01:29.705Z,4636.00
2024-01-08T13:02:29.870Z,4635.00
2024-01-08T13:03:29.815Z,4634.00
2024-01-08T13:04:30.016Z,4629.00
2024-01-08T13:05:30.063Z,4623.00
2024-01-08T13:06:30.816Z,4625.00
2024-01-08T13:07:30.072Z,4618.00
2024-01-08T13:08:30.148Z,4619.00
2024-01-08T13:09:30.212Z,4604.00
2024-01-08T13:10:30.264Z,4593.00
2024-01-08T13:11:30.402Z,4588.00
2024-01-08T13:12:30.400Z,4599.00
2024-01-08T13:13:30.469Z,4590.00
2024-01-08T13:14:30.550Z,4583.00
2024-01-08T13:15:30.608Z,4582.00
2024-01-08T13:16:30.725Z,4590.00
2024-01-08T13:17:30.783Z,4579.00
2024-01-08T13:18:31.045Z,4574.00
2024-01-08T13:19:30.891Z,4573.00
2024-01-08T13:20:31.084Z,4582.00
2024-01-08T13:21:31.015Z,4566.00
2024-01-08T13:22:31.093Z,4570.00
2024-01-08T13:23:31.174Z,4566.00
2024-01-08T13:24:31.303Z,4555.00
2024-01-08T13:25:31.543Z,4549.00
2024-01-08T13:26:31.388Z,4543.00
2024-01-08T13:27:31.450Z,4534.00
2024-01-08T13:28:31.506Z,4531.00
2024-01-08T13:29:31.605Z,4530.00
2024-01-08T13:30:31.680Z,4537.00
2024-01-08T13:31:31.716Z,4532.00
2024-01-08T13:32:31.832Z,4516.00
2024-01-08T13:33:31.929Z,4511.00
2024-01-08T13:34:32.051Z,4518.00
2024-01-08T13:35:32.035Z,4516.00
2024-01-08T13:36:32.069Z,4512.00
2024-01-08T13:37:32.136Z,4515.00
2024-01-08T13:38:32.266Z,4500.00
2024-01-08T13:39:32.322Z,4495.00
2024-01-08T13:40:32.364Z,4493.00
2024-01-08T13:41:32.486Z,4497.00
2024-01-08T13:42:32.493Z,4501.00
2024-01-08T13:43:32.548Z,4490.00
2024-01-08T13:44:32.658Z,4490.00
2024-01-08T13:45:32.701Z,4491.00
2024-01-08T13:46:32.812Z,4498.00
2024-01-08T13:47:32.945Z,4479.00
2024-01-08T13:48:33.335Z,4474.00
2024-01-08T13:49:32.949Z,4479.00
2024-01-08T13:50:32.980Z,4479.00
2024-01-08T13:51:33.033Z,4471.00
2024-01-08T13:52:33.065Z,4474.00
2024-01-08T13:53:33.119Z,4468.00
2024-01-08T13:54:33.174Z,4464.00
2024-01-08T13:55:33.187Z,4418.00
2024-01-08T13:56:33.262Z,4440.00
2024-01-08T13:57:33.226Z,4453.00
2024-01-08T13:58:33.230Z,4439.00
2024-01-08T13:59:33.264Z,4443.00
2024-01-08T14:00:33.278Z,4443.00
2024-01-08T14:01:33.287Z,4437.00
2024-01-08T14:02:33.441Z,4404.00
2024-01-08T14:03:33.439Z,4416.00
2024-01-08T14:04:33.359Z,4424.00
2024-01-08T14:05:33.451Z,4427.00
2024-01-08T14:06:33.420Z,4417.00
2024-01-08T14:07:33.396Z,4424.00
2024-01-08T14:08:33.483Z,4426.00
2024-01-08T14:09:33.392Z,4430.00
2024-01-08T14:10:33.394Z,4430.00
2024-01-08T14:11:33.423Z,4433.00
2024-01-08T14:12:33.433Z,4437.00
2024-01-08T14:13:33.428Z,4429.00
2024-01-08T14:14:33.491Z,4416.00
2024-01-08T14:15:33.441Z,4418.00
2024-01-08T14:16:33.430Z,4407.00
2024-01-08T14:17:33.551Z,4385.00
2024-01-08T14:18:33.550Z,4377.00
2024-01-08T14:19:33.634Z,4389.00
2024-01-08T14:20:33.512Z,4406.00
2024-01-08T14:21:33.454Z,4403.00
2024-01-08T14:22:33.464Z,4404.00
2024-01-08T14:23:33.525Z,4403.00
2024-01-08T14:24:33.483Z,4399.00
2024-01-08T14:25:33.491Z,4395.00
2024-01-08T14:26:33.528Z,4397.00
2024-01-08T14:27:33.501Z,4394.00
2024-01-08T14:28:33.508Z,4381.00
2024-01-08T14:29:33.576Z,4358.00
2024-01-08T14:30:33.600Z,4356.00
2024-01-08T14:31:33.531Z,4368.00
2024-01-08T14:32:33.596Z,4369.00